sensor_id;sensor_type;location;lat;lon;timestamp;temperature;humidity
27072;DHT22;14613;46.308;25.288;2023-09-19T00:02:19;15.30;75.50
27072;DHT22;14613;46.308;25.288;2023-09-19T00:04:45;15.20;75.50
27072;DHT22;14613;46.308;25.288;2023-09-19T00:07:11;15.10;75.50
27072;DHT22;14613;46.308;25.288;2023-09-19T00:09:36;15.00;75.60
27072;DHT22;14613;46.308;25.288;2023-09-19T00:12:06;14.90;76.10
27072;DHT22;14613;46.308;25.288;2023-09-19T00:14:34;14.70;76.40
27072;DHT22;14613;46.308;25.288;2023-09-19T00:17:02;14.70;76.60
27072;DHT22;14613;46.308;25.288;2023-09-19T00:19:31;14.60;76.60
27072;DHT22;14613;46.308;25.288;2023-09-19T00:21:58;14.60;76.70
27072;DHT22;14613;46.308;25.288;2023-09-19T00:24:24;14.60;76.70
27072;DHT22;14613;46.308;25.288;2023-09-19T00:26:49;14.50;76.80
27072;DHT22;14613;46.308;25.288;2023-09-19T00:29:15;14.50;76.80
27072;DHT22;14613;46.308;25.288;2023-09-19T00:31:44;14.50;76.80
27072;DHT22;14613;46.308;25.288;2023-09-19T00:34:10;14.50;76.80
27072;DHT22;14613;46.308;25.288;2023-09-19T00:36:37;14.50;76.70
27072;DHT22;14613;46.308;25.288;2023-09-19T00:39:06;14.50;76.70
27072;DHT22;14613;46.308;25.288;2023-09-19T00:41:33;14.40;76.70
27072;DHT22;14613;46.308;25.288;2023-09-19T00:44:01;14.50;76.80
27072;DHT22;14613;46.308;25.288;2023-09-19T00:46:28;14.40;76.80
27072;DHT22;14613;46.308;25.288;2023-09-19T00:48:53;14.40;76.70
27072;DHT22;14613;46.308;25.288;2023-09-19T00:51:20;14.40;76.70
27072;DHT22;14613;46.308;25.288;2023-09-19T00:53:47;14.40;76.70
27072;DHT22;14613;46.308;25.288;2023-09-19T00:56:13;14.40;76.70
27072;DHT22;14613;46.308;25.288;2023-09-19T00:58:40;14.40;76.70
27072;DHT22;14613;46.308;25.288;2023-09-19T01:01:06;14.40;76.80
27072;DHT22;14613;46.308;25.288;2023-09-19T01:03:36;14.40;76.80
27072;DHT22;14613;46.308;25.288;2023-09-19T01:06:02;14.40;76.80
27072;DHT22;14613;46.308;25.288;2023-09-19T01:08:30;14.40;76.80
27072;DHT22;14613;46.308;25.288;2023-09-19T01:11:01;14.40;76.90
27072;DHT22;14613;46.308;25.288;2023-09-19T01:13:35;14.40;77.00
27072;DHT22;14613;46.308;25.288;2023-09-19T01:16:11;14.40;76.90
27072;DHT22;14613;46.308;25.288;2023-09-19T01:21:39;14.40;77.80
27072;DHT22;14613;46.308;25.288;2023-09-19T01:29:43;14.40;77.10
27072;DHT22;14613;46.308;25.288;2023-09-19T01:32:11;14.40;77.30
27072;DHT22;14613;46.308;25.288;2023-09-19T01:34:50;14.20;77.60
27072;DHT22;14613;46.308;25.288;2023-09-19T01:37:20;14.00;78.00
27072;DHT22;14613;46.308;25.288;2023-09-19T01:40:01;13.80;78.50
27072;DHT22;14613;46.308;25.288;2023-09-19T01:42:50;13.70;79.20
27072;DHT22;14613;46.308;25.288;2023-09-19T01:46:16;13.60;79.70
27072;DHT22;14613;46.308;25.288;2023-09-19T01:48:42;13.50;79.80
27072;DHT22;14613;46.308;25.288;2023-09-19T01:51:16;13.50;79.90
27072;DHT22;14613;46.308;25.288;2023-09-19T01:54:03;13.50;80.00
27072;DHT22;14613;46.308;25.288;2023-09-19T01:56:50;13.40;80.10
27072;DHT22;14613;46.308;25.288;2023-09-19T01:59:21;13.50;80.00
27072;DHT22;14613;46.308;25.288;2023-09-19T02:01:49;13.50;79.90
27072;DHT22;14613;46.308;25.288;2023-09-19T02:04:17;13.60;79.80
27072;DHT22;14613;46.308;25.288;2023-09-19T02:06:42;13.60;79.60
27072;DHT22;14613;46.308;25.288;2023-09-19T02:09:08;13.70;79.60
27072;DHT22;14613;46.308;25.288;2023-09-19T02:11:35;13.70;79.50
27072;DHT22;14613;46.308;25.288;2023-09-19T02:14:02;13.70;79.50
27072;DHT22;14613;46.308;25.288;2023-09-19T02:16:28;13.80;79.50
27072;DHT22;14613;46.308;25.288;2023-09-19T02:18:54;13.80;79.60
27072;DHT22;14613;46.308;25.288;2023-09-19T02:21:20;13.80;79.50
27072;DHT22;14613;46.308;25.288;2023-09-19T02:23:47;13.80;79.50
27072;DHT22;14613;46.308;25.288;2023-09-19T02:26:13;13.80;79.30
27072;DHT22;14613;46.308;25.288;2023-09-19T02:28:40;13.90;79.30
27072;DHT22;14613;46.308;25.288;2023-09-19T02:31:05;13.90;79.20
27072;DHT22;14613;46.308;25.288;2023-09-19T02:33:31;13.90;79.10
27072;DHT22;14613;46.308;25.288;2023-09-19T02:36:00;13.90;79.10
27072;DHT22;14613;46.308;25.288;2023-09-19T02:38:26;14.00;79.10
27072;DHT22;14613;46.308;25.288;2023-09-19T02:40:55;14.00;79.10
27072;DHT22;14613;46.308;25.288;2023-09-19T02:43:21;14.00;79.00
27072;DHT22;14613;46.308;25.288;2023-09-19T02:45:48;14.00;78.90
27072;DHT22;14613;46.308;25.288;2023-09-19T02:48:20;14.00;78.90
27072;DHT22;14613;46.308;25.288;2023-09-19T02:50:49;13.90;78.90
27072;DHT22;14613;46.308;25.288;2023-09-19T02:53:15;13.80;79.00
27072;DHT22;14613;46.308;25.288;2023-09-19T02:55:41;13.70;79.30
27072;DHT22;14613;46.308;25.288;2023-09-19T02:58:07;13.50;79.70
27072;DHT22;14613;46.308;25.288;2023-09-19T03:00:40;13.50;80.10
27072;DHT22;14613;46.308;25.288;2023-09-19T03:03:08;13.40;80.30
27072;DHT22;14613;46.308;25.288;2023-09-19T03:05:34;13.30;80.40
27072;DHT22;14613;46.308;25.288;2023-09-19T03:08:00;13.30;80.50
27072;DHT22;14613;46.308;25.288;2023-09-19T03:10:26;13.30;80.50
27072;DHT22;14613;46.308;25.288;2023-09-19T03:12:53;13.30;80.40
27072;DHT22;14613;46.308;25.288;2023-09-19T03:15:19;13.30;80.40
27072;DHT22;14613;46.308;25.288;2023-09-19T03:17:47;13.30;80.40
27072;DHT22;14613;46.308;25.288;2023-09-19T03:20:14;13.30;80.50
27072;DHT22;14613;46.308;25.288;2023-09-19T03:22:43;13.30;80.80
27072;DHT22;14613;46.308;25.288;2023-09-19T03:25:09;13.20;81.20
27072;DHT22;14613;46.308;25.288;2023-09-19T03:27:38;13.20;81.10
27072;DHT22;14613;46.308;25.288;2023-09-19T03:30:05;13.20;81.00
27072;DHT22;14613;46.308;25.288;2023-09-19T03:32:37;13.20;81.10
27072;DHT22;14613;46.308;25.288;2023-09-19T03:35:08;13.20;81.10
27072;DHT22;14613;46.308;25.288;2023-09-19T03:37:40;13.20;81.10
27072;DHT22;14613;46.308;25.288;2023-09-19T03:40:08;13.20;81.00
27072;DHT22;14613;46.308;25.288;2023-09-19T03:42:34;13.30;81.00
27072;DHT22;14613;46.308;25.288;2023-09-19T03:45:01;13.30;81.00
27072;DHT22;14613;46.308;25.288;2023-09-19T03:47:29;13.30;81.00
27072;DHT22;14613;46.308;25.288;2023-09-19T03:49:55;13.30;80.90
27072;DHT22;14613;46.308;25.288;2023-09-19T03:52:21;13.40;80.90
27072;DHT22;14613;46.308;25.288;2023-09-19T03:54:46;13.40;80.90
27072;DHT22;14613;46.308;25.288;2023-09-19T03:57:12;13.50;80.90
27072;DHT22;14613;46.308;25.288;2023-09-19T03:59:41;13.50;80.80
27072;DHT22;14613;46.308;25.288;2023-09-19T04:02:08;13.60;80.70
27072;DHT22;14613;46.308;25.288;2023-09-19T04:04:56;13.70;80.70
27072;DHT22;14613;46.308;25.288;2023-09-19T04:07:21;13.70;80.60
27072;DHT22;14613;46.308;25.288;2023-09-19T04:09:48;13.80;80.60
27072;DHT22;14613;46.308;25.288;2023-09-19T04:12:14;13.80;80.40
27072;DHT22;14613;46.308;25.288;2023-09-19T04:14:42;13.90;80.40
27072;DHT22;14613;46.308;25.288;2023-09-19T04:17:08;13.90;80.40
27072;DHT22;14613;46.308;25.288;2023-09-19T04:19:35;14.00;80.40
27072;DHT22;14613;46.308;25.288;2023-09-19T04:22:01;14.00;80.40
27072;DHT22;14613;46.308;25.288;2023-09-19T04:24:27;14.00;80.50
27072;DHT22;14613;46.308;25.288;2023-09-19T04:26:53;14.00;80.60
27072;DHT22;14613;46.308;25.288;2023-09-19T04:29:18;14.00;80.60
27072;DHT22;14613;46.308;25.288;2023-09-19T04:31:45;14.00;80.60
27072;DHT22;14613;46.308;25.288;2023-09-19T04:34:12;14.10;80.80
27072;DHT22;14613;46.308;25.288;2023-09-19T04:36:43;14.10;80.90
27072;DHT22;14613;46.308;25.288;2023-09-19T04:39:09;14.20;81.30
27072;DHT22;14613;46.308;25.288;2023-09-19T04:41:36;14.40;81.40
27072;DHT22;14613;46.308;25.288;2023-09-19T04:44:07;14.60;81.10
27072;DHT22;14613;46.308;25.288;2023-09-19T04:46:35;14.70;80.80
27072;DHT22;14613;46.308;25.288;2023-09-19T04:49:01;14.80;80.50
27072;DHT22;14613;46.308;25.288;2023-09-19T04:51:28;14.80;80.30
27072;DHT22;14613;46.308;25.288;2023-09-19T04:53:58;14.80;80.30
27072;DHT22;14613;46.308;25.288;2023-09-19T04:56:24;14.90;80.30
27072;DHT22;14613;46.308;25.288;2023-09-19T04:58:50;14.90;80.30
27072;DHT22;14613;46.308;25.288;2023-09-19T05:01:15;14.90;80.30
27072;DHT22;14613;46.308;25.288;2023-09-19T05:03:41;14.90;80.30
27072;DHT22;14613;46.308;25.288;2023-09-19T05:06:07;14.90;81.10
27072;DHT22;14613;46.308;25.288;2023-09-19T05:08:33;14.90;80.50
27072;DHT22;14613;46.308;25.288;2023-09-19T05:11:01;14.90;80.60
27072;DHT22;14613;46.308;25.288;2023-09-19T05:13:27;14.90;80.70
27072;DHT22;14613;46.308;25.288;2023-09-19T05:15:53;14.90;80.60
27072;DHT22;14613;46.308;25.288;2023-09-19T05:18:19;15.00;80.60
27072;DHT22;14613;46.308;25.288;2023-09-19T05:20:44;15.00;81.50
27072;DHT22;14613;46.308;25.288;2023-09-19T05:23:10;15.00;80.60
27072;DHT22;14613;46.308;25.288;2023-09-19T05:25:39;15.10;80.60
27072;DHT22;14613;46.308;25.288;2023-09-19T05:31:35;15.30;80.50
27072;DHT22;14613;46.308;25.288;2023-09-19T05:34:06;15.50;80.30
27072;DHT22;14613;46.308;25.288;2023-09-19T05:36:32;15.60;80.30
27072;DHT22;14613;46.308;25.288;2023-09-19T05:38:59;15.70;80.20
27072;DHT22;14613;46.308;25.288;2023-09-19T05:41:25;15.80;80.10
27072;DHT22;14613;46.308;25.288;2023-09-19T05:43:50;15.90;80.10
27072;DHT22;14613;46.308;25.288;2023-09-19T05:46:16;16.00;80.00
27072;DHT22;14613;46.308;25.288;2023-09-19T05:48:43;16.10;80.00
27072;DHT22;14613;46.308;25.288;2023-09-19T05:51:09;16.30;80.00
27072;DHT22;14613;46.308;25.288;2023-09-19T05:53:35;16.40;79.70
27072;DHT22;14613;46.308;25.288;2023-09-19T05:56:01;16.60;79.70
27072;DHT22;14613;46.308;25.288;2023-09-19T05:58:27;16.80;79.90
27072;DHT22;14613;46.308;25.288;2023-09-19T06:00:52;16.90;79.60
27072;DHT22;14613;46.308;25.288;2023-09-19T06:03:18;17.00;79.20
27072;DHT22;14613;46.308;25.288;2023-09-19T06:05:44;17.10;79.20
27072;DHT22;14613;46.308;25.288;2023-09-19T06:08:11;17.10;79.30
27072;DHT22;14613;46.308;25.288;2023-09-19T06:10:37;17.20;79.20
27072;DHT22;14613;46.308;25.288;2023-09-19T06:13:03;17.40;79.20
27072;DHT22;14613;46.308;25.288;2023-09-19T06:15:35;17.40;79.00
27072;DHT22;14613;46.308;25.288;2023-09-19T06:18:01;17.50;78.90
27072;DHT22;14613;46.308;25.288;2023-09-19T06:20:30;17.50;78.90
27072;DHT22;14613;46.308;25.288;2023-09-19T06:22:57;17.60;79.00
27072;DHT22;14613;46.308;25.288;2023-09-19T06:25:22;17.70;78.90
27072;DHT22;14613;46.308;25.288;2023-09-19T06:27:50;17.80;78.70
27072;DHT22;14613;46.308;25.288;2023-09-19T06:30:18;18.00;78.40
27072;DHT22;14613;46.308;25.288;2023-09-19T06:32:44;18.20;78.10
27072;DHT22;14613;46.308;25.288;2023-09-19T06:35:14;18.20;77.70
27072;DHT22;14613;46.308;25.288;2023-09-19T06:37:41;18.40;77.50
27072;DHT22;14613;46.308;25.288;2023-09-19T06:40:14;18.40;77.30
27072;DHT22;14613;46.308;25.288;2023-09-19T06:42:42;18.50;77.30
27072;DHT22;14613;46.308;25.288;2023-09-19T06:45:09;18.70;77.20
27072;DHT22;14613;46.308;25.288;2023-09-19T06:47:39;18.70;77.10
27072;DHT22;14613;46.308;25.288;2023-09-19T06:50:05;18.80;76.80
27072;DHT22;14613;46.308;25.288;2023-09-19T06:52:34;18.90;76.70
27072;DHT22;14613;46.308;25.288;2023-09-19T06:55:00;19.10;76.70
27072;DHT22;14613;46.308;25.288;2023-09-19T06:57:28;19.30;76.70
27072;DHT22;14613;46.308;25.288;2023-09-19T06:59:56;19.60;76.50
27072;DHT22;14613;46.308;25.288;2023-09-19T07:02:21;19.80;75.90
27072;DHT22;14613;46.308;25.288;2023-09-19T07:04:47;20.00;75.50
27072;DHT22;14613;46.308;25.288;2023-09-19T07:07:15;20.20;75.10
27072;DHT22;14613;46.308;25.288;2023-09-19T07:09:41;20.40;74.80
27072;DHT22;14613;46.308;25.288;2023-09-19T07:12:10;20.50;74.50
27072;DHT22;14613;46.308;25.288;2023-09-19T07:14:37;20.70;74.20
27072;DHT22;14613;46.308;25.288;2023-09-19T07:17:03;20.80;74.10
27072;DHT22;14613;46.308;25.288;2023-09-19T07:19:29;21.00;73.90
27072;DHT22;14613;46.308;25.288;2023-09-19T07:21:56;21.10;73.70
27072;DHT22;14613;46.308;25.288;2023-09-19T07:24:24;21.20;73.40
27072;DHT22;14613;46.308;25.288;2023-09-19T07:26:53;21.30;73.00
27072;DHT22;14613;46.308;25.288;2023-09-19T07:29:18;21.30;72.60
27072;DHT22;14613;46.308;25.288;2023-09-19T07:31:44;21.30;72.40
27072;DHT22;14613;46.308;25.288;2023-09-19T07:34:10;21.30;72.40
27072;DHT22;14613;46.308;25.288;2023-09-19T07:36:36;21.30;72.40
27072;DHT22;14613;46.308;25.288;2023-09-19T07:39:03;21.40;72.40
27072;DHT22;14613;46.308;25.288;2023-09-19T07:41:33;21.50;72.30
27072;DHT22;14613;46.308;25.288;2023-09-19T07:43:58;21.60;72.00
27072;DHT22;14613;46.308;25.288;2023-09-19T07:46:24;21.70;71.90
27072;DHT22;14613;46.308;25.288;2023-09-19T07:48:51;21.70;71.60
27072;DHT22;14613;46.308;25.288;2023-09-19T07:51:17;21.80;71.40
27072;DHT22;14613;46.308;25.288;2023-09-19T07:53:43;21.80;71.20
27072;DHT22;14613;46.308;25.288;2023-09-19T07:56:10;21.80;71.10
27072;DHT22;14613;46.308;25.288;2023-09-19T07:58:39;21.80;71.00
27072;DHT22;14613;46.308;25.288;2023-09-19T08:01:07;21.80;71.00
27072;DHT22;14613;46.308;25.288;2023-09-19T08:03:36;21.90;71.00
27072;DHT22;14613;46.308;25.288;2023-09-19T08:06:07;22.00;70.90
27072;DHT22;14613;46.308;25.288;2023-09-19T08:08:36;22.00;70.70
27072;DHT22;14613;46.308;25.288;2023-09-19T08:11:06;22.10;70.60
27072;DHT22;14613;46.308;25.288;2023-09-19T08:13:41;22.20;70.50
27072;DHT22;14613;46.308;25.288;2023-09-19T08:16:12;22.20;70.30
27072;DHT22;14613;46.308;25.288;2023-09-19T08:18:40;22.30;70.20
27072;DHT22;14613;46.308;25.288;2023-09-19T08:21:07;22.40;70.00
27072;DHT22;14613;46.308;25.288;2023-09-19T08:23:39;22.40;69.70
27072;DHT22;14613;46.308;25.288;2023-09-19T08:26:05;22.50;69.80
27072;DHT22;14613;46.308;25.288;2023-09-19T08:28:34;22.60;69.70
27072;DHT22;14613;46.308;25.288;2023-09-19T08:31:04;22.70;69.50
27072;DHT22;14613;46.308;25.288;2023-09-19T08:33:35;22.80;69.30
27072;DHT22;14613;46.308;25.288;2023-09-19T08:36:02;22.80;69.00
27072;DHT22;14613;46.308;25.288;2023-09-19T08:38:31;22.80;69.00
27072;DHT22;14613;46.308;25.288;2023-09-19T08:40:59;22.80;69.00
27072;DHT22;14613;46.308;25.288;2023-09-19T08:43:28;22.70;68.80
27072;DHT22;14613;46.308;25.288;2023-09-19T08:46:11;22.80;68.70
27072;DHT22;14613;46.308;25.288;2023-09-19T08:48:45;22.90;68.50
27072;DHT22;14613;46.308;25.288;2023-09-19T08:51:46;22.90;68.20
27072;DHT22;14613;46.308;25.288;2023-09-19T08:54:24;22.80;68.10
27072;DHT22;14613;46.308;25.288;2023-09-19T08:56:53;22.70;68.20
27072;DHT22;14613;46.308;25.288;2023-09-19T08:59:22;22.70;68.40
27072;DHT22;14613;46.308;25.288;2023-09-19T09:01:53;22.70;69.10
27072;DHT22;14613;46.308;25.288;2023-09-19T09:04:20;22.70;68.20
27072;DHT22;14613;46.308;25.288;2023-09-19T09:06:46;22.80;68.20
27072;DHT22;14613;46.308;25.288;2023-09-19T09:09:18;22.90;68.20
27072;DHT22;14613;46.308;25.288;2023-09-19T09:11:45;23.00;68.10
27072;DHT22;14613;46.308;25.288;2023-09-19T09:14:13;23.10;67.90
27072;DHT22;14613;46.308;25.288;2023-09-19T09:16:39;23.20;67.80
27072;DHT22;14613;46.308;25.288;2023-09-19T09:19:05;23.30;67.70
27072;DHT22;14613;46.308;25.288;2023-09-19T09:21:31;23.40;67.50
27072;DHT22;14613;46.308;25.288;2023-09-19T09:24:28;23.50;67.10
27072;DHT22;14613;46.308;25.288;2023-09-19T09:26:55;23.70;66.90
27072;DHT22;14613;46.308;25.288;2023-09-19T09:29:50;23.90;66.80
27072;DHT22;14613;46.308;25.288;2023-09-19T09:32:27;24.00;66.60
27072;DHT22;14613;46.308;25.288;2023-09-19T09:37:20;24.40;66.20
27072;DHT22;14613;46.308;25.288;2023-09-19T09:39:51;24.50;65.90
27072;DHT22;14613;46.308;25.288;2023-09-19T09:42:32;24.70;65.70
27072;DHT22;14613;46.308;25.288;2023-09-19T09:45:18;24.80;65.30
27072;DHT22;14613;46.308;25.288;2023-09-19T09:47:54;25.00;65.00
27072;DHT22;14613;46.308;25.288;2023-09-19T09:50:26;25.10;64.80
27072;DHT22;14613;46.308;25.288;2023-09-19T09:52:57;25.20;64.60
27072;DHT22;14613;46.308;25.288;2023-09-19T09:56:02;25.30;64.30
27072;DHT22;14613;46.308;25.288;2023-09-19T09:58:35;25.40;64.00
27072;DHT22;14613;46.308;25.288;2023-09-19T10:01:01;25.50;63.90
27072;DHT22;14613;46.308;25.288;2023-09-19T10:03:37;25.70;63.70
27072;DHT22;14613;46.308;25.288;2023-09-19T10:06:13;25.80;63.60
27072;DHT22;14613;46.308;25.288;2023-09-19T10:11:44;25.90;63.20
27072;DHT22;14613;46.308;25.288;2023-09-19T10:14:12;26.00;62.80
27072;DHT22;14613;46.308;25.288;2023-09-19T10:16:48;26.10;62.70
27072;DHT22;14613;46.308;25.288;2023-09-19T10:19:53;26.10;62.50
27072;DHT22;14613;46.308;25.288;2023-09-19T10:22:23;26.20;62.40
27072;DHT22;14613;46.308;25.288;2023-09-19T10:24:53;26.30;62.20
27072;DHT22;14613;46.308;25.288;2023-09-19T10:27:20;26.40;62.00
27072;DHT22;14613;46.308;25.288;2023-09-19T10:29:49;26.40;61.70
27072;DHT22;14613;46.308;25.288;2023-09-19T10:32:22;26.40;61.60
27072;DHT22;14613;46.308;25.288;2023-09-19T10:34:49;26.40;61.50
27072;DHT22;14613;46.308;25.288;2023-09-19T10:37:20;26.40;61.40
27072;DHT22;14613;46.308;25.288;2023-09-19T10:39:48;26.50;61.20
27072;DHT22;14613;46.308;25.288;2023-09-19T10:42:21;26.50;61.10
27072;DHT22;14613;46.308;25.288;2023-09-19T10:44:52;26.50;61.10
27072;DHT22;14613;46.308;25.288;2023-09-19T10:47:20;26.40;61.00
27072;DHT22;14613;46.308;25.288;2023-09-19T10:49:50;26.40;61.10
27072;DHT22;14613;46.308;25.288;2023-09-19T10:52:20;26.40;61.10
27072;DHT22;14613;46.308;25.288;2023-09-19T10:54:50;26.30;61.10
27072;DHT22;14613;46.308;25.288;2023-09-19T10:57:21;26.30;61.10
27072;DHT22;14613;46.308;25.288;2023-09-19T11:00:06;26.30;61.20
27072;DHT22;14613;46.308;25.288;2023-09-19T11:05:35;26.20;61.40
27072;DHT22;14613;46.308;25.288;2023-09-19T11:08:07;26.10;61.40
27072;DHT22;14613;46.308;25.288;2023-09-19T11:10:49;26.00;61.30
27072;DHT22;14613;46.308;25.288;2023-09-19T11:13:29;25.90;61.50
27072;DHT22;14613;46.308;25.288;2023-09-19T11:16:03;25.90;61.70
27072;DHT22;14613;46.308;25.288;2023-09-19T11:26:48;25.80;62.20
27072;DHT22;14613;46.308;25.288;2023-09-19T11:29:30;25.80;62.10
27072;DHT22;14613;46.308;25.288;2023-09-19T11:31:59;25.90;62.10
27072;DHT22;14613;46.308;25.288;2023-09-19T11:34:39;25.80;62.10
27072;DHT22;14613;46.308;25.288;2023-09-19T11:39:40;25.80;62.30
27072;DHT22;14613;46.308;25.288;2023-09-19T11:42:41;25.80;62.30
27072;DHT22;14613;46.308;25.288;2023-09-19T11:45:07;25.80;62.40
27072;DHT22;14613;46.308;25.288;2023-09-19T11:47:33;25.70;62.30
27072;DHT22;14613;46.308;25.288;2023-09-19T11:50:01;25.60;62.40
27072;DHT22;14613;46.308;25.288;2023-09-19T11:52:28;25.60;62.50
27072;DHT22;14613;46.308;25.288;2023-09-19T11:55:01;25.50;62.60
27072;DHT22;14613;46.308;25.288;2023-09-19T11:57:29;25.40;62.70
27072;DHT22;14613;46.308;25.288;2023-09-19T11:59:56;25.30;62.80
27072;DHT22;14613;46.308;25.288;2023-09-19T12:02:38;25.20;63.10
27072;DHT22;14613;46.308;25.288;2023-09-19T12:05:06;25.10;63.30
27072;DHT22;14613;46.308;25.288;2023-09-19T12:07:45;24.90;63.40
27072;DHT22;14613;46.308;25.288;2023-09-19T12:10:13;24.80;63.90
27072;DHT22;14613;46.308;25.288;2023-09-19T12:12:47;24.60;64.10
27072;DHT22;14613;46.308;25.288;2023-09-19T12:15:23;24.40;64.60
27072;DHT22;14613;46.308;25.288;2023-09-19T12:17:54;24.30;65.00
27072;DHT22;14613;46.308;25.288;2023-09-19T12:20:20;24.00;65.40
27072;DHT22;14613;46.308;25.288;2023-09-19T12:26:08;23.60;66.70
27072;DHT22;14613;46.308;25.288;2023-09-19T12:28:41;23.30;67.30
27072;DHT22;14613;46.308;25.288;2023-09-19T12:31:10;23.10;67.80
27072;DHT22;14613;46.308;25.288;2023-09-19T12:33:37;22.90;68.20
27072;DHT22;14613;46.308;25.288;2023-09-19T12:36:25;22.80;68.70
27072;DHT22;14613;46.308;25.288;2023-09-19T12:38:58;22.60;69.10
27072;DHT22;14613;46.308;25.288;2023-09-19T12:41:34;22.50;69.40
27072;DHT22;14613;46.308;25.288;2023-09-19T12:44:01;22.40;69.90
27072;DHT22;14613;46.308;25.288;2023-09-19T12:46:30;22.30;70.00
27072;DHT22;14613;46.308;25.288;2023-09-19T12:49:19;22.30;71.10
27072;DHT22;14613;46.308;25.288;2023-09-19T12:51:48;22.20;70.50
27072;DHT22;14613;46.308;25.288;2023-09-19T12:54:14;22.20;70.60
27072;DHT22;14613;46.308;25.288;2023-09-19T12:56:45;22.20;70.80
27072;DHT22;14613;46.308;25.288;2023-09-19T12:59:14;22.20;70.90
27072;DHT22;14613;46.308;25.288;2023-09-19T13:01:41;22.20;71.10
27072;DHT22;14613;46.308;25.288;2023-09-19T13:04:21;22.10;71.10
27072;DHT22;14613;46.308;25.288;2023-09-19T13:06:55;22.10;71.30
27072;DHT22;14613;46.308;25.288;2023-09-19T13:09:27;22.10;71.40
27072;DHT22;14613;46.308;25.288;2023-09-19T13:12:04;22.10;71.70
27072;DHT22;14613;46.308;25.288;2023-09-19T13:14:32;22.10;71.80
27072;DHT22;14613;46.308;25.288;2023-09-19T13:17:19;22.10;72.00
27072;DHT22;14613;46.308;25.288;2023-09-19T13:19:50;22.10;72.30
27072;DHT22;14613;46.308;25.288;2023-09-19T13:22:42;22.10;72.30
27072;DHT22;14613;46.308;25.288;2023-09-19T13:25:16;22.10;72.60
27072;DHT22;14613;46.308;25.288;2023-09-19T13:27:47;22.10;72.70
27072;DHT22;14613;46.308;25.288;2023-09-19T13:30:17;22.10;72.80
27072;DHT22;14613;46.308;25.288;2023-09-19T13:32:43;22.10;72.80
27072;DHT22;14613;46.308;25.288;2023-09-19T13:35:09;22.00;72.90
27072;DHT22;14613;46.308;25.288;2023-09-19T13:37:38;22.10;73.00
27072;DHT22;14613;46.308;25.288;2023-09-19T13:40:12;22.00;73.10
27072;DHT22;14613;46.308;25.288;2023-09-19T13:42:38;22.00;73.20
27072;DHT22;14613;46.308;25.288;2023-09-19T13:45:04;22.00;73.20
27072;DHT22;14613;46.308;25.288;2023-09-19T13:47:33;22.00;73.40
27072;DHT22;14613;46.308;25.288;2023-09-19T13:50:01;22.00;73.50
27072;DHT22;14613;46.308;25.288;2023-09-19T13:52:27;22.00;73.70
27072;DHT22;14613;46.308;25.288;2023-09-19T13:54:56;22.00;73.90
27072;DHT22;14613;46.308;25.288;2023-09-19T13:57:25;22.10;74.00
27072;DHT22;14613;46.308;25.288;2023-09-19T13:59:52;22.20;74.00
27072;DHT22;14613;46.308;25.288;2023-09-19T14:02:20;22.30;74.00
27072;DHT22;14613;46.308;25.288;2023-09-19T14:04:48;22.30;73.80
27072;DHT22;14613;46.308;25.288;2023-09-19T14:07:15;22.30;73.70
27072;DHT22;14613;46.308;25.288;2023-09-19T14:09:41;22.40;73.80
27072;DHT22;14613;46.308;25.288;2023-09-19T14:12:07;22.30;73.70
27072;DHT22;14613;46.308;25.288;2023-09-19T14:14:33;22.30;73.70
27072;DHT22;14613;46.308;25.288;2023-09-19T14:16:58;22.20;73.80
27072;DHT22;14613;46.308;25.288;2023-09-19T14:19:27;22.20;74.00
27072;DHT22;14613;46.308;25.288;2023-09-19T14:21:53;22.20;74.10
27072;DHT22;14613;46.308;25.288;2023-09-19T14:24:22;22.10;74.10
27072;DHT22;14613;46.308;25.288;2023-09-19T14:26:48;22.00;74.30
27072;DHT22;14613;46.308;25.288;2023-09-19T14:29:15;22.10;74.60
27072;DHT22;14613;46.308;25.288;2023-09-19T14:31:41;22.10;74.60
27072;DHT22;14613;46.308;25.288;2023-09-19T14:34:08;22.10;74.60
27072;DHT22;14613;46.308;25.288;2023-09-19T14:36:37;22.10;74.70
27072;DHT22;14613;46.308;25.288;2023-09-19T14:39:04;22.10;74.80
27072;DHT22;14613;46.308;25.288;2023-09-19T14:41:30;22.10;74.90
27072;DHT22;14613;46.308;25.288;2023-09-19T14:43:56;22.10;74.90
27072;DHT22;14613;46.308;25.288;2023-09-19T14:46:22;22.10;74.90
27072;DHT22;14613;46.308;25.288;2023-09-19T14:48:52;22.10;74.90
27072;DHT22;14613;46.308;25.288;2023-09-19T14:51:19;22.10;74.90
27072;DHT22;14613;46.308;25.288;2023-09-19T14:53:45;22.10;75.00
27072;DHT22;14613;46.308;25.288;2023-09-19T14:56:12;22.10;75.00
27072;DHT22;14613;46.308;25.288;2023-09-19T14:58:38;22.10;75.00
27072;DHT22;14613;46.308;25.288;2023-09-19T15:01:06;22.10;75.20
27072;DHT22;14613;46.308;25.288;2023-09-19T15:03:33;22.10;75.20
27072;DHT22;14613;46.308;25.288;2023-09-19T15:06:03;22.10;75.20
27072;DHT22;14613;46.308;25.288;2023-09-19T15:08:30;22.10;75.20
27072;DHT22;14613;46.308;25.288;2023-09-19T15:10:56;22.10;75.20
27072;DHT22;14613;46.308;25.288;2023-09-19T15:13:24;22.10;75.30
27072;DHT22;14613;46.308;25.288;2023-09-19T15:16:02;22.10;75.30
27072;DHT22;14613;46.308;25.288;2023-09-19T15:18:28;22.10;75.40
27072;DHT22;14613;46.308;25.288;2023-09-19T15:20:56;22.00;75.30
27072;DHT22;14613;46.308;25.288;2023-09-19T15:23:22;22.00;75.50
27072;DHT22;14613;46.308;25.288;2023-09-19T15:25:51;22.00;75.60
27072;DHT22;14613;46.308;25.288;2023-09-19T15:28:17;22.00;75.60
27072;DHT22;14613;46.308;25.288;2023-09-19T15:30:43;21.90;75.60
27072;DHT22;14613;46.308;25.288;2023-09-19T15:33:09;21.90;75.70
27072;DHT22;14613;46.308;25.288;2023-09-19T15:35:35;21.90;75.80
27072;DHT22;14613;46.308;25.288;2023-09-19T15:38:03;21.80;75.80
27072;DHT22;14613;46.308;25.288;2023-09-19T15:40:29;21.80;75.90
27072;DHT22;14613;46.308;25.288;2023-09-19T15:42:55;21.80;76.10
27072;DHT22;14613;46.308;25.288;2023-09-19T15:45:24;21.70;76.10
27072;DHT22;14613;46.308;25.288;2023-09-19T15:47:51;21.70;76.20
27072;DHT22;14613;46.308;25.288;2023-09-19T15:50:17;21.60;76.30
27072;DHT22;14613;46.308;25.288;2023-09-19T15:52:43;21.60;76.40
27072;DHT22;14613;46.308;25.288;2023-09-19T15:55:08;21.60;76.40
27072;DHT22;14613;46.308;25.288;2023-09-19T15:57:38;21.50;76.40
27072;DHT22;14613;46.308;25.288;2023-09-19T16:00:05;21.50;76.50
27072;DHT22;14613;46.308;25.288;2023-09-19T16:02:36;21.40;76.50
27072;DHT22;14613;46.308;25.288;2023-09-19T16:05:02;21.40;76.70